sensor_id;sensor_type;location;lat;lon;timestamp;P1;P2;P0
77515;PMS5003;66627;29.424;-98.496;2024-03-08T00:02:03;23;23;
77515;PMS5003;66627;29.424;-98.496;2024-03-08T00:04:29;23;23;
77515;PMS5003;66627;29.424;-98.496;2024-03-08T00:06:54;26;24;
77515;PMS5003;66627;29.424;-98.496;2024-03-08T00:09:19;25;22;
77515;PMS5003;66627;29.424;-98.496;2024-03-08T00:11:45;26;23;
77515;PMS5003;66627;29.424;-98.496;2024-03-08T00:14:10;22;22;
77515;PMS5003;66627;29.424;-98.496;2024-03-08T00:16:35;25;20;
77515;PMS5003;66627;29.424;-98.496;2024-03-08T00:19:00;24;19;
77515;PMS5003;66627;29.424;-98.496;2024-03-08T00:21:26;30;25;
77515;PMS5003;66627;29.424;-98.496;2024-03-08T00:23:51;23;23;
77515;PMS5003;66627;29.424;-98.496;2024-03-08T00:26:16;24;24;
77515;PMS5003;66627;29.424;-98.496;2024-03-08T00:28:41;19;18;
77515;PMS5003;66627;29.424;-98.496;2024-03-08T00:31:07;28;23;
77515;PMS5003;66627;29.424;-98.496;2024-03-08T00:33:33;18;18;
77515;PMS5003;66627;29.424;-98.496;2024-03-08T00:35:58;26;20;
77515;PMS5003;66627;29.424;-98.496;2024-03-08T00:38:23;23;20;
77515;PMS5003;66627;29.424;-98.496;2024-03-08T00:40:49;27;23;
77515;PMS5003;66627;29.424;-98.496;2024-03-08T00:43:14;23;23;
77515;PMS5003;66627;29.424;-98.496;2024-03-08T00:45:40;21;21;
77515;PMS5003;66627;29.424;-98.496;2024-03-08T00:48:06;29;25;
77515;PMS5003;66627;29.424;-98.496;2024-03-08T00:50:31;22;21;
77515;PMS5003;66627;29.424;-98.496;2024-03-08T00:52:56;22;20;
77515;PMS5003;66627;29.424;-98.496;2024-03-08T00:55:22;21;20;
77515;PMS5003;66627;29.424;-98.496;2024-03-08T00:57:47;19;18;
77515;PMS5003;66627;29.424;-98.496;2024-03-08T01:00:13;26;23;
77515;PMS5003;66627;29.424;-98.496;2024-03-08T01:02:38;26;23;
77515;PMS5003;66627;29.424;-98.496;2024-03-08T01:05:03;20;18;
77515;PMS5003;66627;29.424;-98.496;2024-03-08T01:07:28;26;19;
77515;PMS5003;66627;29.424;-98.496;2024-03-08T01:09:53;19;18;
77515;PMS5003;66627;29.424;-98.496;2024-03-08T01:12:19;22;21;
77515;PMS5003;66627;29.424;-98.496;2024-03-08T01:14:45;23;22;
77515;PMS5003;66627;29.424;-98.496;2024-03-08T01:17:10;23;23;
77515;PMS5003;66627;29.424;-98.496;2024-03-08T01:19:36;23;22;
77515;PMS5003;66627;29.424;-98.496;2024-03-08T01:22:01;21;20;
77515;PMS5003;66627;29.424;-98.496;2024-03-08T01:24:27;21;21;
77515;PMS5003;66627;29.424;-98.496;2024-03-08T01:26:52;20;20;
77515;PMS5003;66627;29.424;-98.496;2024-03-08T01:29:18;19;19;
77515;PMS5003;66627;29.424;-98.496;2024-03-08T01:31:42;24;21;
77515;PMS5003;66627;29.424;-98.496;2024-03-08T01:34:08;26;24;
77515;PMS5003;66627;29.424;-98.496;2024-03-08T01:36:34;22;21;
77515;PMS5003;66627;29.424;-98.496;2024-03-08T01:38:59;32;29;
77515;PMS5003;66627;29.424;-98.496;2024-03-08T01:41:25;25;24;
77515;PMS5003;66627;29.424;-98.496;2024-03-08T01:43:50;20;20;
77515;PMS5003;66627;29.424;-98.496;2024-03-08T01:46:16;23;22;
77515;PMS5003;66627;29.424;-98.496;2024-03-08T01:48:41;19;19;
77515;PMS5003;66627;29.424;-98.496;2024-03-08T01:51:06;29;27;
77515;PMS5003;66627;29.424;-98.496;2024-03-08T01:53:34;26;25;
77515;PMS5003;66627;29.424;-98.496;2024-03-08T01:55:57;22;20;
77515;PMS5003;66627;29.424;-98.496;2024-03-08T01:58:22;24;24;
77515;PMS5003;66627;29.424;-98.496;2024-03-08T02:00:48;25;22;
77515;PMS5003;66627;29.424;-98.496;2024-03-08T02:03:13;21;19;
77515;PMS5003;66627;29.424;-98.496;2024-03-08T02:05:38;24;22;
77515;PMS5003;66627;29.424;-98.496;2024-03-08T02:08:05;26;21;
77515;PMS5003;66627;29.424;-98.496;2024-03-08T02:10:29;27;24;
77515;PMS5003;66627;29.424;-98.496;2024-03-08T02:12:55;22;20;
77515;PMS5003;66627;29.424;-98.496;2024-03-08T02:15:21;29;21;
77515;PMS5003;66627;29.424;-98.496;2024-03-08T02:17:45;25;22;
77515;PMS5003;66627;29.424;-98.496;2024-03-08T02:20:11;21;20;
77515;PMS5003;66627;29.424;-98.496;2024-03-08T02:22:37;22;22;
77515;PMS5003;66627;29.424;-98.496;2024-03-08T02:25:03;22;20;
77515;PMS5003;66627;29.424;-98.496;2024-03-08T02:27:29;22;18;
77515;PMS5003;66627;29.424;-98.496;2024-03-08T02:29:54;25;21;
77515;PMS5003;66627;29.424;-98.496;2024-03-08T02:32:19;21;21;
77515;PMS5003;66627;29.424;-98.496;2024-03-08T02:34:44;22;19;
77515;PMS5003;66627;29.424;-98.496;2024-03-08T02:37:10;26;22;
77515;PMS5003;66627;29.424;-98.496;2024-03-08T02:39:35;20;19;
77515;PMS5003;66627;29.424;-98.496;2024-03-08T02:42:01;25;22;
77515;PMS5003;66627;29.424;-98.496;2024-03-08T02:44:26;27;24;
77515;PMS5003;66627;29.424;-98.496;2024-03-08T02:46:52;24;22;
77515;PMS5003;66627;29.424;-98.496;2024-03-08T02:49:17;26;22;
77515;PMS5003;66627;29.424;-98.496;2024-03-08T02:51:42;23;19;
77515;PMS5003;66627;29.424;-98.496;2024-03-08T02:54:08;23;21;
77515;PMS5003;66627;29.424;-98.496;2024-03-08T02:56:33;26;23;
77515;PMS5003;66627;29.424;-98.496;2024-03-08T02:58:59;26;22;
77515;PMS5003;66627;29.424;-98.496;2024-03-08T03:01:24;23;22;
77515;PMS5003;66627;29.424;-98.496;2024-03-08T03:03:49;27;24;
77515;PMS5003;66627;29.424;-98.496;2024-03-08T03:06:15;26;22;
77515;PMS5003;66627;29.424;-98.496;2024-03-08T03:08:40;34;28;
77515;PMS5003;66627;29.424;-98.496;2024-03-08T03:11:05;25;24;
77515;PMS5003;66627;29.424;-98.496;2024-03-08T03:13:31;24;22;
77515;PMS5003;66627;29.424;-98.496;2024-03-08T03:15:56;22;20;
77515;PMS5003;66627;29.424;-98.496;2024-03-08T03:18:23;29;26;
77515;PMS5003;66627;29.424;-98.496;2024-03-08T03:20:48;26;25;
77515;PMS5003;66627;29.424;-98.496;2024-03-08T03:23:13;24;22;
77515;PMS5003;66627;29.424;-98.496;2024-03-08T03:25:38;30;27;
77515;PMS5003;66627;29.424;-98.496;2024-03-08T03:28:04;27;27;
77515;PMS5003;66627;29.424;-98.496;2024-03-08T03:30:29;22;20;
77515;PMS5003;66627;29.424;-98.496;2024-03-08T03:32:55;27;25;
77515;PMS5003;66627;29.424;-98.496;2024-03-08T03:35:21;26;25;
77515;PMS5003;66627;29.424;-98.496;2024-03-08T03:37:46;29;27;
77515;PMS5003;66627;29.424;-98.496;2024-03-08T03:40:12;23;20;
77515;PMS5003;66627;29.424;-98.496;2024-03-08T03:42:38;28;24;
77515;PMS5003;66627;29.424;-98.496;2024-03-08T03:45:03;33;27;
77515;PMS5003;66627;29.424;-98.496;2024-03-08T03:47:28;25;22;
77515;PMS5003;66627;29.424;-98.496;2024-03-08T03:49:55;23;23;
77515;PMS5003;66627;29.424;-98.496;2024-03-08T03:52:19;28;27;
77515;PMS5003;66627;29.424;-98.496;2024-03-08T03:54:45;26;21;
77515;PMS5003;66627;29.424;-98.496;2024-03-08T03:57:10;29;28;
77515;PMS5003;66627;29.424;-98.496;2024-03-08T03:59:36;30;28;
77515;PMS5003;66627;29.424;-98.496;2024-03-08T04:02:02;30;26;
77515;PMS5003;66627;29.424;-98.496;2024-03-08T04:04:27;30;24;
77515;PMS5003;66627;29.424;-98.496;2024-03-08T04:06:57;34;30;
77515;PMS5003;66627;29.424;-98.496;2024-03-08T04:09:18;28;26;
77515;PMS5003;66627;29.424;-98.496;2024-03-08T04:11:43;33;28;
77515;PMS5003;66627;29.424;-98.496;2024-03-08T04:14:09;24;23;
77515;PMS5003;66627;29.424;-98.496;2024-03-08T04:16:33;24;22;
77515;PMS5003;66627;29.424;-98.496;2024-03-08T04:19:00;27;26;
77515;PMS5003;66627;29.424;-98.496;2024-03-08T04:21:25;29;24;
77515;PMS5003;66627;29.424;-98.496;2024-03-08T04:23:51;29;27;
77515;PMS5003;66627;29.424;-98.496;2024-03-08T04:26:15;33;27;
77515;PMS5003;66627;29.424;-98.496;2024-03-08T04:28:41;46;42;
77515;PMS5003;66627;29.424;-98.496;2024-03-08T04:31:07;35;28;
77515;PMS5003;66627;29.424;-98.496;2024-03-08T04:33:32;27;27;
77515;PMS5003;66627;29.424;-98.496;2024-03-08T04:35:57;28;23;
77515;PMS5003;66627;29.424;-98.496;2024-03-08T04:38:22;28;25;
77515;PMS5003;66627;29.424;-98.496;2024-03-08T04:40:49;26;23;
77515;PMS5003;66627;29.424;-98.496;2024-03-08T04:43:13;26;23;
77515;PMS5003;66627;29.424;-98.496;2024-03-08T04:45:39;31;27;
77515;PMS5003;66627;29.424;-98.496;2024-03-08T04:48:06;24;21;
77515;PMS5003;66627;29.424;-98.496;2024-03-08T04:50:29;33;27;
77515;PMS5003;66627;29.424;-98.496;2024-03-08T04:52:54;35;33;
77515;PMS5003;66627;29.424;-98.496;2024-03-08T04:55:19;29;26;
77515;PMS5003;66627;29.424;-98.496;2024-03-08T04:57:45;29;26;
77515;PMS5003;66627;29.424;-98.496;2024-03-08T05:00:10;33;27;
77515;PMS5003;66627;29.424;-98.496;2024-03-08T05:02:34;31;27;
77515;PMS5003;66627;29.424;-98.496;2024-03-08T05:05:00;31;27;
77515;PMS5003;66627;29.424;-98.496;2024-03-08T05:07:26;32;28;
77515;PMS5003;66627;29.424;-98.496;2024-03-08T05:09:51;26;22;
77515;PMS5003;66627;29.424;-98.496;2024-03-08T05:12:16;26;23;
77515;PMS5003;66627;29.424;-98.496;2024-03-08T05:14:42;33;28;
77515;PMS5003;66627;29.424;-98.496;2024-03-08T05:17:07;26;23;
77515;PMS5003;66627;29.424;-98.496;2024-03-08T05:19:33;31;30;
77515;PMS5003;66627;29.424;-98.496;2024-03-08T05:21:58;32;23;
77515;PMS5003;66627;29.424;-98.496;2024-03-08T05:24:23;25;22;
77515;PMS5003;66627;29.424;-98.496;2024-03-08T05:26:48;26;26;
77515;PMS5003;66627;29.424;-98.496;2024-03-08T05:29:14;25;25;
77515;PMS5003;66627;29.424;-98.496;2024-03-08T05:31:42;33;29;
77515;PMS5003;66627;29.424;-98.496;2024-03-08T05:34:05;31;25;
77515;PMS5003;66627;29.424;-98.496;2024-03-08T05:36:30;31;27;
77515;PMS5003;66627;29.424;-98.496;2024-03-08T05:38:56;26;23;
77515;PMS5003;66627;29.424;-98.496;2024-03-08T05:41:21;28;26;
77515;PMS5003;66627;29.424;-98.496;2024-03-08T05:43:46;27;24;
77515;PMS5003;66627;29.424;-98.496;2024-03-08T05:46:15;24;23;
77515;PMS5003;66627;29.424;-98.496;2024-03-08T05:48:38;30;27;
77515;PMS5003;66627;29.424;-98.496;2024-03-08T05:51:02;25;24;
77515;PMS5003;66627;29.424;-98.496;2024-03-08T05:53:28;32;29;
77515;PMS5003;66627;29.424;-98.496;2024-03-08T05:55:54;31;29;
77515;PMS5003;66627;29.424;-98.496;2024-03-08T05:58:19;25;23;
77515;PMS5003;66627;29.424;-98.496;2024-03-08T06:00:45;28;25;
77515;PMS5003;66627;29.424;-98.496;2024-03-08T06:03:11;31;27;
77515;PMS5003;66627;29.424;-98.496;2024-03-08T06:05:35;30;29;
77515;PMS5003;66627;29.424;-98.496;2024-03-08T06:08:01;27;23;
77515;PMS5003;66627;29.424;-98.496;2024-03-08T06:10:25;31;30;
77515;PMS5003;66627;29.424;-98.496;2024-03-08T06:12:50;32;30;
77515;PMS5003;66627;29.424;-98.496;2024-03-08T06:15:16;28;26;
77515;PMS5003;66627;29.424;-98.496;2024-03-08T06:17:41;26;24;
77515;PMS5003;66627;29.424;-98.496;2024-03-08T06:20:07;31;29;
77515;PMS5003;66627;29.424;-98.496;2024-03-08T06:22:32;33;31;
77515;PMS5003;66627;29.424;-98.496;2024-03-08T06:24:57;34;31;
77515;PMS5003;66627;29.424;-98.496;2024-03-08T06:27:23;28;28;
77515;PMS5003;66627;29.424;-98.496;2024-03-08T06:29:49;28;25;
77515;PMS5003;66627;29.424;-98.496;2024-03-08T06:32:15;31;29;
77515;PMS5003;66627;29.424;-98.496;2024-03-08T06:34:40;32;26;
77515;PMS5003;66627;29.424;-98.496;2024-03-08T06:37:05;33;28;
77515;PMS5003;66627;29.424;-98.496;2024-03-08T06:39:31;33;32;
77515;PMS5003;66627;29.424;-98.496;2024-03-08T06:41:57;33;29;
77515;PMS5003;66627;29.424;-98.496;2024-03-08T06:44:22;34;31;
77515;PMS5003;66627;29.424;-98.496;2024-03-08T06:46:48;35;30;
77515;PMS5003;66627;29.424;-98.496;2024-03-08T06:49:13;30;27;
77515;PMS5003;66627;29.424;-98.496;2024-03-08T06:51:38;29;27;
77515;PMS5003;66627;29.424;-98.496;2024-03-08T06:54:03;37;32;
77515;PMS5003;66627;29.424;-98.496;2024-03-08T06:56:28;27;24;
77515;PMS5003;66627;29.424;-98.496;2024-03-08T06:58:53;36;31;
77515;PMS5003;66627;29.424;-98.496;2024-03-08T07:01:18;35;31;
77515;PMS5003;66627;29.424;-98.496;2024-03-08T07:03:44;27;26;
77515;PMS5003;66627;29.424;-98.496;2024-03-08T07:06:10;31;30;
77515;PMS5003;66627;29.424;-98.496;2024-03-08T07:08:35;43;36;
77515;PMS5003;66627;29.424;-98.496;2024-03-08T07:11:00;37;31;
77515;PMS5003;66627;29.424;-98.496;2024-03-08T07:13:25;33;26;
77515;PMS5003;66627;29.424;-98.496;2024-03-08T07:15:51;41;36;
77515;PMS5003;66627;29.424;-98.496;2024-03-08T07:18:16;34;30;
77515;PMS5003;66627;29.424;-98.496;2024-03-08T07:20:41;36;28;
77515;PMS5003;66627;29.424;-98.496;2024-03-08T07:23:07;36;29;
77515;PMS5003;66627;29.424;-98.496;2024-03-08T07:25:31;28;27;
77515;PMS5003;66627;29.424;-98.496;2024-03-08T07:27:57;36;32;
77515;PMS5003;66627;29.424;-98.496;2024-03-08T07:30:22;34;34;
77515;PMS5003;66627;29.424;-98.496;2024-03-08T07:32:47;36;31;
77515;PMS5003;66627;29.424;-98.496;2024-03-08T07:35:13;34;32;
77515;PMS5003;66627;29.424;-98.496;2024-03-08T07:37:38;32;31;
77515;PMS5003;66627;29.424;-98.496;2024-03-08T07:40:04;34;29;
77515;PMS5003;66627;29.424;-98.496;2024-03-08T07:42:29;32;30;
77515;PMS5003;66627;29.424;-98.496;2024-03-08T07:44:55;29;29;
77515;PMS5003;66627;29.424;-98.496;2024-03-08T07:47:20;34;30;
77515;PMS5003;66627;29.424;-98.496;2024-03-08T07:49:46;38;31;
77515;PMS5003;66627;29.424;-98.496;2024-03-08T07:52:11;36;31;
77515;PMS5003;66627;29.424;-98.496;2024-03-08T07:54:36;42;36;
77515;PMS5003;66627;29.424;-98.496;2024-03-08T07:57:02;38;31;
77515;PMS5003;66627;29.424;-98.496;2024-03-08T07:59:27;39;36;
77515;PMS5003;66627;29.424;-98.496;2024-03-08T08:01:52;36;32;
77515;PMS5003;66627;29.424;-98.496;2024-03-08T08:04:18;30;29;
77515;PMS5003;66627;29.424;-98.496;2024-03-08T08:06:43;32;30;
77515;PMS5003;66627;29.424;-98.496;2024-03-08T08:09:09;46;41;
77515;PMS5003;66627;29.424;-98.496;2024-03-08T08:11:34;45;36;
77515;PMS5003;66627;29.424;-98.496;2024-03-08T08:13:59;42;36;
77515;PMS5003;66627;29.424;-98.496;2024-03-08T08:16:25;42;37;
77515;PMS5003;66627;29.424;-98.496;2024-03-08T08:18:51;36;32;
77515;PMS5003;66627;29.424;-98.496;2024-03-08T08:21:16;40;39;
77515;PMS5003;66627;29.424;-98.496;2024-03-08T08:23:41;43;37;
77515;PMS5003;66627;29.424;-98.496;2024-03-08T08:26:07;42;37;
77515;PMS5003;66627;29.424;-98.496;2024-03-08T08:28:32;43;37;
77515;PMS5003;66627;29.424;-98.496;2024-03-08T08:30:58;41;36;
77515;PMS5003;66627;29.424;-98.496;2024-03-08T08:33:24;44;39;
77515;PMS5003;66627;29.424;-98.496;2024-03-08T08:35:48;39;35;
77515;PMS5003;66627;29.424;-98.496;2024-03-08T08:38:14;57;43;
77515;PMS5003;66627;29.424;-98.496;2024-03-08T08:40:40;49;46;
77515;PMS5003;66627;29.424;-98.496;2024-03-08T08:43:05;43;38;
77515;PMS5003;66627;29.424;-98.496;2024-03-08T08:45:30;53;43;
77515;PMS5003;66627;29.424;-98.496;2024-03-08T08:47:55;42;39;
77515;PMS5003;66627;29.424;-98.496;2024-03-08T08:50:20;46;41;
77515;PMS5003;66627;29.424;-98.496;2024-03-08T08:52:45;50;39;
77515;PMS5003;66627;29.424;-98.496;2024-03-08T08:55:11;45;35;
77515;PMS5003;66627;29.424;-98.496;2024-03-08T08:57:36;42;35;
77515;PMS5003;66627;29.424;-98.496;2024-03-08T09:00:02;37;34;
77515;PMS5003;66627;29.424;-98.496;2024-03-08T09:02:27;45;40;
77515;PMS5003;66627;29.424;-98.496;2024-03-08T09:04:53;46;42;
77515;PMS5003;66627;29.424;-98.496;2024-03-08T09:07:19;46;44;
77515;PMS5003;66627;29.424;-98.496;2024-03-08T09:09:44;40;37;
77515;PMS5003;66627;29.424;-98.496;2024-03-08T09:12:09;37;35;
77515;PMS5003;66627;29.424;-98.496;2024-03-08T09:14:35;44;40;
77515;PMS5003;66627;29.424;-98.496;2024-03-08T09:17:00;48;39;
77515;PMS5003;66627;29.424;-98.496;2024-03-08T09:19:25;48;41;
77515;PMS5003;66627;29.424;-98.496;2024-03-08T09:21:51;51;42;
77515;PMS5003;66627;29.424;-98.496;2024-03-08T09:24:17;44;40;
77515;PMS5003;66627;29.424;-98.496;2024-03-08T09:26:42;47;39;
77515;PMS5003;66627;29.424;-98.496;2024-03-08T09:29:09;46;39;
77515;PMS5003;66627;29.424;-98.496;2024-03-08T09:31:33;40;37;
77515;PMS5003;66627;29.424;-98.496;2024-03-08T09:33:59;45;41;
77515;PMS5003;66627;29.424;-98.496;2024-03-08T09:36:24;43;37;
77515;PMS5003;66627;29.424;-98.496;2024-03-08T09:38:50;39;36;
77515;PMS5003;66627;29.424;-98.496;2024-03-08T09:41:15;46;41;
77515;PMS5003;66627;29.424;-98.496;2024-03-08T09:43:41;43;40;
77515;PMS5003;66627;29.424;-98.496;2024-03-08T09:46:06;38;35;
77515;PMS5003;66627;29.424;-98.496;2024-03-08T09:48:31;49;46;
77515;PMS5003;66627;29.424;-98.496;2024-03-08T09:50:57;39;35;
77515;PMS5003;66627;29.424;-98.496;2024-03-08T09:53:23;44;42;
77515;PMS5003;66627;29.424;-98.496;2024-03-08T09:55:48;43;36;
77515;PMS5003;66627;29.424;-98.496;2024-03-08T09:58:14;47;43;
77515;PMS5003;66627;29.424;-98.496;2024-03-08T10:00:39;41;36;
77515;PMS5003;66627;29.424;-98.496;2024-03-08T10:03:05;48;45;
77515;PMS5003;66627;29.424;-98.496;2024-03-08T10:05:30;41;34;
77515;PMS5003;66627;29.424;-98.496;2024-03-08T10:07:55;46;39;
77515;PMS5003;66627;29.424;-98.496;2024-03-08T10:10:21;44;35;
77515;PMS5003;66627;29.424;-98.496;2024-03-08T10:12:46;43;41;
77515;PMS5003;66627;29.424;-98.496;2024-03-08T10:15:11;49;39;
77515;PMS5003;66627;29.424;-98.496;2024-03-08T10:17:37;45;42;
77515;PMS5003;66627;29.424;-98.496;2024-03-08T10:20:03;47;41;
77515;PMS5003;66627;29.424;-98.496;2024-03-08T10:22:29;42;39;
77515;PMS5003;66627;29.424;-98.496;2024-03-08T10:24:54;43;39;
77515;PMS5003;66627;29.424;-98.496;2024-03-08T10:27:20;45;42;
77515;PMS5003;66627;29.424;-98.496;2024-03-08T10:29:46;46;41;
77515;PMS5003;66627;29.424;-98.496;2024-03-08T10:32:10;39;34;
77515;PMS5003;66627;29.424;-98.496;2024-03-08T10:34:35;43;39;
77515;PMS5003;66627;29.424;-98.496;2024-03-08T10:37:02;51;46;
77515;PMS5003;66627;29.424;-98.496;2024-03-08T10:39:27;43;41;
77515;PMS5003;66627;29.424;-98.496;2024-03-08T10:41:55;52;42;
77515;PMS5003;66627;29.424;-98.496;2024-03-08T10:44:19;46;40;
77515;PMS5003;66627;29.424;-98.496;2024-03-08T10:46:47;37;36;
77515;PMS5003;66627;29.424;-98.496;2024-03-08T10:49:11;39;38;
77515;PMS5003;66627;29.424;-98.496;2024-03-08T10:51:34;44;41;
77515;PMS5003;66627;29.424;-98.496;2024-03-08T10:54:00;43;39;
77515;PMS5003;66627;29.424;-98.496;2024-03-08T10:56:26;50;42;
77515;PMS5003;66627;29.424;-98.496;2024-03-08T10:58:52;38;36;
77515;PMS5003;66627;29.424;-98.496;2024-03-08T11:01:17;52;44;
77515;PMS5003;66627;29.424;-98.496;2024-03-08T11:03:45;48;41;
77515;PMS5003;66627;29.424;-98.496;2024-03-08T11:06:08;48;44;
77515;PMS5003;66627;29.424;-98.496;2024-03-08T11:08:33;54;47;
77515;PMS5003;66627;29.424;-98.496;2024-03-08T11:10:58;43;37;
77515;PMS5003;66627;29.424;-98.496;2024-03-08T11:15:49;49;42;
77515;PMS5003;66627;29.424;-98.496;2024-03-08T11:18:14;50;48;
77515;PMS5003;66627;29.424;-98.496;2024-03-08T11:20:39;55;47;
77515;PMS5003;66627;29.424;-98.496;2024-03-08T11:23:05;53;47;
77515;PMS5003;66627;29.424;-98.496;2024-03-08T11:25:32;47;44;
77515;PMS5003;66627;29.424;-98.496;2024-03-08T11:30:22;50;44;
77515;PMS5003;66627;29.424;-98.496;2024-03-08T11:32:46;51;42;
77515;PMS5003;66627;29.424;-98.496;2024-03-08T11:37:37;47;43;
77515;PMS5003;66627;29.424;-98.496;2024-03-08T11:40:11;45;43;
77515;PMS5003;66627;29.424;-98.496;2024-03-08T11:42:29;56;48;
77515;PMS5003;66627;29.424;-98.496;2024-03-08T11:44:54;51;44;
77515;PMS5003;66627;29.424;-98.496;2024-03-08T11:47:20;49;44;
77515;PMS5003;66627;29.424;-98.496;2024-03-08T11:49:45;54;46;
77515;PMS5003;66627;29.424;-98.496;2024-03-08T11:52:11;49;45;
77515;PMS5003;66627;29.424;-98.496;2024-03-08T11:54:35;53;46;
77515;PMS5003;66627;29.424;-98.496;2024-03-08T11:57:01;47;43;
77515;PMS5003;66627;29.424;-98.496;2024-03-08T11:59:27;49;45;
77515;PMS5003;66627;29.424;-98.496;2024-03-08T12:01:58;60;47;
77515;PMS5003;66627;29.424;-98.496;2024-03-08T12:04:17;40;40;
77515;PMS5003;66627;29.424;-98.496;2024-03-08T12:06:42;48;45;
77515;PMS5003;66627;29.424;-98.496;2024-03-08T12:09:08;49;42;
77515;PMS5003;66627;29.424;-98.496;2024-03-08T12:11:33;50;46;
77515;PMS5003;66627;29.424;-98.496;2024-03-08T12:13:58;50;45;
77515;PMS5003;66627;29.424;-98.496;2024-03-08T12:16:24;56;48;
77515;PMS5003;66627;29.424;-98.496;2024-03-08T12:18:50;60;52;
77515;PMS5003;66627;29.424;-98.496;2024-03-08T12:21:14;43;38;
77515;PMS5003;66627;29.424;-98.496;2024-03-08T12:23:40;21;18;
77515;PMS5003;66627;29.424;-98.496;2024-03-08T12:26:11;25;22;
77515;PMS5003;66627;29.424;-98.496;2024-03-08T12:28:30;17;15;
77515;PMS5003;66627;29.424;-98.496;2024-03-08T12:30:56;8;8;
77515;PMS5003;66627;29.424;-98.496;2024-03-08T12:33:22;11;11;
77515;PMS5003;66627;29.424;-98.496;2024-03-08T12:35:50;12;11;
77515;PMS5003;66627;29.424;-98.496;2024-03-08T12:38:13;8;8;
77515;PMS5003;66627;29.424;-98.496;2024-03-08T12:40:38;10;10;
77515;PMS5003;66627;29.424;-98.496;2024-03-08T12:43:03;7;7;
77515;PMS5003;66627;29.424;-98.496;2024-03-08T12:45:28;7;6;
77515;PMS5003;66627;29.424;-98.496;2024-03-08T12:47:54;10;10;
77515;PMS5003;66627;29.424;-98.496;2024-03-08T12:50:19;7;7;
77515;PMS5003;66627;29.424;-98.496;2024-03-08T12:52:43;7;7;
77515;PMS5003;66627;29.424;-98.496;2024-03-08T12:55:09;9;9;
77515;PMS5003;66627;29.424;-98.496;2024-03-08T12:57:35;11;7;
77515;PMS5003;66627;29.424;-98.496;2024-03-08T12:59:59;9;8;
77515;PMS5003;66627;29.424;-98.496;2024-03-08T13:02:25;6;6;
77515;PMS5003;66627;29.424;-98.496;2024-03-08T13:04:50;10;10;
77515;PMS5003;66627;29.424;-98.496;2024-03-08T13:07:16;7;7;
77515;PMS5003;66627;29.424;-98.496;2024-03-08T13:09:41;9;7;
77515;PMS5003;66627;29.424;-98.496;2024-03-08T13:12:06;9;9;
77515;PMS5003;66627;29.424;-98.496;2024-03-08T13:14:32;6;6;
77515;PMS5003;66627;29.424;-98.496;2024-03-08T13:16:57;8;8;
77515;PMS5003;66627;29.424;-98.496;2024-03-08T13:19:23;8;7;
77515;PMS5003;66627;29.424;-98.496;2024-03-08T13:21:48;9;7;
77515;PMS5003;66627;29.424;-98.496;2024-03-08T13:24:13;11;7;
77515;PMS5003;66627;29.424;-98.496;2024-03-08T13:26:39;9;8;
77515;PMS5003;66627;29.424;-98.496;2024-03-08T13:29:04;11;9;
77515;PMS5003;66627;29.424;-98.496;2024-03-08T13:31:29;9;9;
77515;PMS5003;66627;29.424;-98.496;2024-03-08T13:33:54;11;9;
77515;PMS5003;66627;29.424;-98.496;2024-03-08T13:36:20;7;7;
77515;PMS5003;66627;29.424;-98.496;2024-03-08T13:38:46;10;9;
77515;PMS5003;66627;29.424;-98.496;2024-03-08T13:41:11;8;8;
77515;PMS5003;66627;29.424;-98.496;2024-03-08T13:43:36;9;9;
77515;PMS5003;66627;29.424;-98.496;2024-03-08T13:46:02;12;7;
77515;PMS5003;66627;29.424;-98.496;2024-03-08T13:48:28;7;7;
77515;PMS5003;66627;29.424;-98.496;2024-03-08T13:50:53;10;10;
77515;PMS5003;66627;29.424;-98.496;2024-03-08T13:55:44;8;8;
77515;PMS5003;66627;29.424;-98.496;2024-03-08T13:58:09;10;10;
77515;PMS5003;66627;29.424;-98.496;2024-03-08T14:00:35;6;6;
77515;PMS5003;66627;29.424;-98.496;2024-03-08T14:03:00;7;7;
77515;PMS5003;66627;29.424;-98.496;2024-03-08T14:05:25;10;10;
77515;PMS5003;66627;29.424;-98.496;2024-03-08T14:07:50;7;6;
77515;PMS5003;66627;29.424;-98.496;2024-03-08T14:10:16;8;7;
77515;PMS5003;66627;29.424;-98.496;2024-03-08T14:12:41;8;7;
77515;PMS5003;66627;29.424;-98.496;2024-03-08T14:15:06;7;7;
77515;PMS5003;66627;29.424;-98.496;2024-03-08T14:17:31;9;8;
77515;PMS5003;66627;29.424;-98.496;2024-03-08T14:19:57;8;8;
77515;PMS5003;66627;29.424;-98.496;2024-03-08T14:22:22;9;8;
77515;PMS5003;66627;29.424;-98.496;2024-03-08T14:24:47;11;10;
77515;PMS5003;66627;29.424;-98.496;2024-03-08T14:27:12;8;8;
77515;PMS5003;66627;29.424;-98.496;2024-03-08T14:29:37;10;7;
77515;PMS5003;66627;29.424;-98.496;2024-03-08T14:32:03;9;7;
77515;PMS5003;66627;29.424;-98.496;2024-03-08T14:34:28;7;7;
77515;PMS5003;66627;29.424;-98.496;2024-03-08T14:36:53;7;7;
77515;PMS5003;66627;29.424;-98.496;2024-03-08T14:39:18;8;6;
77515;PMS5003;66627;29.424;-98.496;2024-03-08T14:41:44;6;6;
77515;PMS5003;66627;29.424;-98.496;2024-03-08T14:44:08;5;5;
77515;PMS5003;66627;29.424;-98.496;2024-03-08T14:46:34;6;6;
77515;PMS5003;66627;29.424;-98.496;2024-03-08T14:48:59;5;5;
77515;PMS5003;66627;29.424;-98.496;2024-03-08T14:51:24;4;4;
77515;PMS5003;66627;29.424;-98.496;2024-03-08T14:53:51;6;5;
77515;PMS5003;66627;29.424;-98.496;2024-03-08T14:56:15;4;4;
77515;PMS5003;66627;29.424;-98.496;2024-03-08T14:58:39;8;6;
77515;PMS5003;66627;29.424;-98.496;2024-03-08T15:01:04;5;5;
77515;PMS5003;66627;29.424;-98.496;2024-03-08T15:03:30;7;7;
77515;PMS5003;66627;29.424;-98.496;2024-03-08T15:05:55;5;5;
77515;PMS5003;66627;29.424;-98.496;2024-03-08T15:08:20;6;5;
77515;PMS5003;66627;29.424;-98.496;2024-03-08T15:10:45;4;4;
77515;PMS5003;66627;29.424;-98.496;2024-03-08T15:13:11;7;7;
77515;PMS5003;66627;29.424;-98.496;2024-03-08T15:15:36;6;6;
77515;PMS5003;66627;29.424;-98.496;2024-03-08T15:18:01;7;6;
77515;PMS5003;66627;29.424;-98.496;2024-03-08T15:20:27;5;5;
77515;PMS5003;66627;29.424;-98.496;2024-03-08T15:22:51;7;4;
77515;PMS5003;66627;29.424;-98.496;2024-03-08T15:25:16;8;8;
77515;PMS5003;66627;29.424;-98.496;2024-03-08T15:27:41;5;5;
77515;PMS5003;66627;29.424;-98.496;2024-03-08T15:30:07;5;5;
77515;PMS5003;66627;29.424;-98.496;2024-03-08T15:32:31;4;4;
77515;PMS5003;66627;29.424;-98.496;2024-03-08T15:34:57;3;3;
77515;PMS5003;66627;29.424;-98.496;2024-03-08T15:37:27;9;6;
77515;PMS5003;66627;29.424;-98.496;2024-03-08T15:39:47;4;3;
77515;PMS5003;66627;29.424;-98.496;2024-03-08T15:42:12;3;3;
77515;PMS5003;66627;29.424;-98.496;2024-03-08T15:44:37;4;4;
77515;PMS5003;66627;29.424;-98.496;2024-03-08T15:47:02;3;2;
77515;PMS5003;66627;29.424;-98.496;2024-03-08T15:49:27;4;4;